Kufstein, Austria
Current Conditions -  °F | °C
As of 5:20 AM on Tuesday 27 Jan 2015 (Local Time) from LOWS Reporting Station
Moderate Snow Moderate Snow  
Wind Chill: 24°   Ceiling: 1600
Heat Index: 30°   Visibility: 1.5mi
Dew Point: 28°   Wind: 6mph
Humidity: 93%   Direction: 140°SE
Pressure: 30"   Gusts: NA
Location:  47.62°N, 12.19°E
Report Text: LOWS 270320Z 14005KT 2500 SN BR FEW006 SCT012 BKN016 M01/M02 Q1016
Loading
Personal Weather Stations






























Interactive Weather Map New forecast layout! Learn more

10-Day Weather Forecast

Advertisements
Track Severe Weather on mobile